Time;durP1;ratioP1;P1;durP2;ratioP2;P2;SDS_P1;SDS_P2;PMS_P1;PMS_P2;Temp;Humidity;BMP_temperature;BMP_pressure;BME280_temperature;BME280_humidity;BME280_pressure;Samples;Min_cycle;Max_cycle;Signal;HPM_P1;HPM_P2
2023/05/25 00:02:03;;;;;;;15.82;3.47;;;9.00;90.20;;;;;;5090754;28;20048;-72
2023/05/25 00:04:29;;;;;;;11.27;3.95;;;9.00;89.70;;;;;;5097808;28;20356;-72
2023/05/25 00:06:55;;;;;;;11.57;3.47;;;8.90;90.60;;;;;;5092978;28;20036;-72
2023/05/25 00:09:21;;;;;;;11.88;3.75;;;8.90;90.60;;;;;;5095821;28;20063;-72
2023/05/25 00:11:46;;;;;;;11.32;3.67;;;8.90;90.80;;;;;;5095688;28;20036;-72
2023/05/25 00:14:12;;;;;;;11.50;3.72;;;8.80;90.50;;;;;;5094764;28;20040;-72
2023/05/25 00:16:39;;;;;;;14.57;4.15;;;8.80;90.50;;;;;;5093941;28;20031;-72
2023/05/25 00:19:06;;;;;;;11.55;3.47;;;8.70;91.40;;;;;;5095445;28;20056;-72
2023/05/25 00:21:33;;;;;;;11.02;4.00;;;8.70;91.60;;;;;;5095746;28;20382;-72
2023/05/25 00:23:59;;;;;;;9.43;3.47;;;8.70;91.80;;;;;;5090836;28;20379;-72
2023/05/25 00:26:25;;;;;;;15.82;3.78;;;8.70;91.30;;;;;;5093479;28;20016;-72
2023/05/25 00:28:50;;;;;;;11.85;3.85;;;8.70;91.90;;;;;;5096611;28;20031;-72
2023/05/25 00:31:16;;;;;;;11.07;3.58;;;8.60;91.70;;;;;;5096817;28;20372;-72
2023/05/25 00:33:41;;;;;;;12.18;3.55;;;8.70;92.60;;;;;;5094986;28;20107;-72
2023/05/25 00:36:07;;;;;;;8.48;3.20;;;8.70;92.70;;;;;;5095644;28;20047;-72
2023/05/25 00:38:33;;;;;;;11.60;3.50;;;8.70;93.10;;;;;;5096056;28;20047;-72
2023/05/25 00:40:59;;;;;;;12.45;4.22;;;8.80;92.50;;;;;;5066238;28;20086;-72
2023/05/25 00:43:25;;;;;;;11.68;3.83;;;8.80;93.00;;;;;;5091983;28;20402;-71
2023/05/25 00:45:50;;;;;;;13.75;3.85;;;8.80;92.50;;;;;;5089520;28;20077;-71
2023/05/25 00:48:19;;;;;;;12.98;3.60;;;8.80;93.60;;;;;;5068169;28;20114;-72
2023/05/25 00:50:45;;;;;;;9.82;3.35;;;8.80;93.20;;;;;;5094807;28;20017;-72
2023/05/25 00:53:13;;;;;;;8.48;3.10;;;8.90;93.50;;;;;;5096370;28;20149;-72
2023/05/25 00:56:02;;;;;;;13.15;3.83;;;8.80;93.90;;;;;;5089758;28;20020;-72
2023/05/25 00:58:31;;;;;;;13.93;4.25;;;8.90;94.60;;;;;;5078333;28;20444;-72
2023/05/25 01:00:58;;;;;;;13.77;3.58;;;8.90;96.60;;;;;;5096755;28;20358;-72
2023/05/25 01:03:28;;;;;;;11.45;3.67;;;8.90;95.80;;;;;;5087620;28;20318;-72
2023/05/25 01:05:56;;;;;;;11.75;4.65;;;8.90;93.40;;;;;;5084597;28;20047;-72
2023/05/25 01:08:23;;;;;;;12.55;3.78;;;8.90;93.00;;;;;;5095164;28;20016;-72
2023/05/25 01:10:51;;;;;;;15.10;3.78;;;8.90;93.40;;;;;;5090382;28;20031;-72
2023/05/25 01:13:18;;;;;;;11.55;3.67;;;8.80;93.10;;;;;;5082578;28;20031;-72
2023/05/25 01:15:46;;;;;;;10.98;3.63;;;8.70;93.20;;;;;;5093652;28;20020;-72
2023/05/25 01:18:14;;;;;;;10.32;3.38;;;8.60;92.40;;;;;;5083588;28;20501;-72
2023/05/25 01:21:11;;;;;;;12.82;4.60;;;8.50;93.10;;;;;;5071473;28;20050;-72
2023/05/25 01:23:41;;;;;;;11.98;3.55;;;8.30;93.60;;;;;;5088083;28;20023;-71
2023/05/25 01:26:12;;;;;;;14.68;3.97;;;8.20;94.20;;;;;;5093726;28;20038;-72
2023/05/25 01:28:41;;;;;;;11.85;4.13;;;8.10;94.60;;;;;;5095089;28;20024;-71
2023/05/25 01:31:08;;;;;;;13.27;3.83;;;8.00;95.20;;;;;;5063748;28;20021;-73
2023/05/25 01:33:35;;;;;;;13.25;4.55;;;7.90;95.40;;;;;;5093390;28;20020;-73
2023/05/25 01:36:03;;;;;;;15.43;3.97;;;7.90;95.40;;;;;;5081873;28;20506;-73
2023/05/25 01:38:28;;;;;;;11.73;4.05;;;7.90;95.20;;;;;;5080470;28;20036;-72
2023/05/25 01:40:54;;;;;;;11.82;4.20;;;7.80;95.90;;;;;;5089878;28;20024;-72
2023/05/25 01:43:19;;;;;;;11.00;3.90;;;7.80;95.60;;;;;;5087248;28;20047;-72
2023/05/25 01:45:46;;;;;;;13.18;4.03;;;7.70;95.90;;;;;;5088393;28;20024;-72
2023/05/25 01:48:34;;;;;;;9.43;4.00;;;7.70;96.00;;;;;;5070544;28;20031;-72
2023/05/25 01:51:14;;;;;;;13.60;3.85;;;7.70;96.30;;;;;;5083441;28;20027;-73
2023/05/25 01:53:44;;;;;;;11.90;4.55;;;7.60;97.60;;;;;;5079607;28;20395;-72
2023/05/25 01:56:12;;;;;;;13.18;4.47;;;7.40;97.70;;;;;;5094894;28;20089;-72
2023/05/25 01:58:41;;;;;;;11.18;4.05;;;7.40;98.00;;;;;;5096716;28;20102;-72
2023/05/25 02:01:12;;;;;;;11.32;4.43;;;7.30;98.00;;;;;;5095330;28;20354;-72
2023/05/25 02:03:40;;;;;;;11.40;4.72;;;7.30;98.00;;;;;;5080539;28;20027;-72
2023/05/25 02:06:06;;;;;;;11.27;4.30;;;7.30;98.00;;;;;;5094064;28;20021;-72
2023/05/25 02:08:32;;;;;;;13.18;4.68;;;7.30;98.00;;;;;;5078667;28;20016;-72
2023/05/25 02:10:58;;;;;;;11.50;4.35;;;7.30;98.00;;;;;;5084228;28;20505;-72
2023/05/25 02:13:23;;;;;;;10.20;4.43;;;7.40;98.00;;;;;;5083554;28;20107;-72
2023/05/25 02:15:49;;;;;;;12.93;4.93;;;7.40;98.00;;;;;;5096490;28;20031;-72
2023/05/25 02:18:16;;;;;;;13.15;5.28;;;7.40;98.00;;;;;;5073500;28;20103;-72
2023/05/25 02:20:42;;;;;;;11.80;4.35;;;7.50;98.00;;;;;;5090404;28;20107;-72
2023/05/25 02:23:08;;;;;;;12.48;4.50;;;7.50;98.00;;;;;;5086740;28;20044;-73
2023/05/25 02:25:34;;;;;;;14.13;4.30;;;7.50;98.00;;;;;;5092212;28;20024;-72
2023/05/25 02:27:59;;;;;;;10.68;4.38;;;7.50;98.00;;;;;;5087934;28;20084;-73
2023/05/25 02:30:25;;;;;;;12.48;4.47;;;7.50;98.00;;;;;;5084796;28;20030;-72
2023/05/25 02:32:52;;;;;;;16.27;4.70;;;7.40;98.00;;;;;;5085159;28;20020;-72
2023/05/25 02:35:18;;;;;;;10.15;4.13;;;7.40;98.00;;;;;;5080131;28;20028;-72
2023/05/25 02:37:44;;;;;;;14.73;4.88;;;7.40;98.00;;;;;;5093359;28;20055;-72
2023/05/25 02:40:11;;;;;;;15.32;4.82;;;7.30;98.00;;;;;;5092670;28;20030;-72
2023/05/25 02:42:37;;;;;;;12.77;5.03;;;7.20;98.00;;;;;;5085561;28;20036;-72
2023/05/25 02:45:05;;;;;;;10.13;4.57;;;7.20;98.00;;;;;;5068511;28;20436;-72
2023/05/25 02:47:30;;;;;;;11.35;4.40;;;7.10;98.00;;;;;;5091838;28;20108;-72
2023/05/25 02:49:56;;;;;;;12.95;4.90;;;7.10;97.80;;;;;;5092323;28;20123;-72
2023/05/25 02:52:24;;;;;;;10.00;4.47;;;7.00;97.30;;;;;;5090101;28;20028;-71
2023/05/25 02:54:50;;;;;;;9.52;4.70;;;6.90;96.60;;;;;;5091481;28;20025;-72
2023/05/25 02:57:15;;;;;;;10.98;4.55;;;6.80;96.60;;;;;;5087293;28;20090;-72
2023/05/25 02:59:41;;;;;;;13.15;4.63;;;6.70;95.80;;;;;;5082282;28;20036;-73
2023/05/25 03:02:06;;;;;;;10.63;4.78;;;6.70;95.40;;;;;;5087128;28;20032;-72
2023/05/25 03:04:33;;;;;;;13.07;4.88;;;6.60;95.40;;;;;;5066986;28;20483;-72
2023/05/25 03:06:58;;;;;;;13.32;4.82;;;6.60;95.30;;;;;;5092813;28;20275;-72
2023/05/25 03:09:24;;;;;;;10.48;4.80;;;6.50;94.80;;;;;;5085265;28;20027;-72
2023/05/25 03:11:50;;;;;;;15.50;5.43;;;6.40;94.40;;;;;;5062783;28;20029;-72
2023/05/25 03:14:15;;;;;;;12.45;5.28;;;6.40;93.70;;;;;;5062010;28;20043;-72
2023/05/25 03:16:41;;;;;;;13.93;4.80;;;6.30;93.10;;;;;;5093353;28;20099;-72
2023/05/25 03:19:09;;;;;;;13.68;6.47;;;6.20;93.20;;;;;;5085770;28;20032;-72
2023/05/25 03:21:35;;;;;;;14.13;6.00;;;6.20;93.10;;;;;;5093247;28;20032;-72
2023/05/25 03:24:00;;;;;;;13.65;5.43;;;6.00;92.20;;;;;;5089950;28;20402;-72
2023/05/25 03:26:26;;;;;;;11.80;5.53;;;6.00;92.20;;;;;;5091995;28;20032;-72
2023/05/25 03:28:52;;;;;;;12.18;6.07;;;6.00;92.80;;;;;;5087058;28;20103;-72
2023/05/25 03:31:17;;;;;;;17.95;6.57;;;6.00;92.60;;;;;;5091034;28;20320;-72
2023/05/25 03:33:43;;;;;;;14.25;5.82;;;6.00;92.70;;;;;;5074886;28;20032;-72
2023/05/25 03:36:11;;;;;;;10.20;5.30;;;5.90;93.80;;;;;;5086671;28;20161;-72
2023/05/25 03:38:37;;;;;;;14.65;5.43;;;5.90;94.10;;;;;;5091163;28;20096;-73
2023/05/25 03:41:03;;;;;;;11.15;5.13;;;5.90;95.00;;;;;;5084568;28;20035;-72
2023/05/25 03:43:30;;;;;;;14.95;6.10;;;5.90;95.20;;;;;;5093117;28;20317;-71
2023/05/25 03:45:55;;;;;;;16.73;5.90;;;5.80;94.60;;;;;;5091308;28;20316;-73
2023/05/25 03:48:21;;;;;;;14.02;6.03;;;5.80;94.40;;;;;;5083963;28;20037;-73
2023/05/25 03:50:47;;;;;;;13.32;5.82;;;5.80;94.50;;;;;;5089256;28;20024;-72
2023/05/25 03:53:12;;;;;;;18.27;7.30;;;5.80;95.20;;;;;;5084111;28;20028;-73
2023/05/25 03:55:38;;;;;;;15.65;6.50;;;5.70;95.30;;;;;;5096142;28;20035;-72
2023/05/25 03:58:04;;;;;;;16.95;6.78;;;5.70;94.80;;;;;;5086578;28;20032;-73
2023/05/25 04:00:29;;;;;;;16.30;6.93;;;5.70;94.80;;;;;;5097176;28;20028;-73
2023/05/25 04:02:59;;;;;;;12.50;5.85;;;5.70;94.50;;;;;;5093927;28;20848;-72
2023/05/25 04:05:25;;;;;;;15.98;6.45;;;5.70;94.50;;;;;;5092744;28;20024;-73
2023/05/25 04:07:51;;;;;;;18.42;6.32;;;5.70;94.20;;;;;;5097870;28;20026;-73
2023/05/25 04:10:16;;;;;;;15.80;7.03;;;5.70;94.20;;;;;;5082395;28;20028;-73
2023/05/25 04:12:42;;;;;;;15.15;6.38;;;5.80;93.80;;;;;;5094927;28;20379;-73
2023/05/25 04:15:08;;;;;;;16.08;7.68;;;5.80;93.90;;;;;;5097396;28;20435;-72
2023/05/25 04:17:34;;;;;;;13.88;6.53;;;5.80;94.10;;;;;;5092007;28;20500;-72
2023/05/25 04:20:01;;;;;;;14.80;5.93;;;5.90;94.20;;;;;;5095259;28;20294;-72
2023/05/25 04:22:26;;;;;;;16.88;6.13;;;6.00;94.70;;;;;;5088043;28;20352;-72
2023/05/25 04:24:52;;;;;;;15.60;6.25;;;6.00;94.90;;;;;;5071001;28;20016;-72
2023/05/25 04:27:19;;;;;;;14.30;5.80;;;6.00;95.10;;;;;;5091684;28;20111;-73
2023/05/25 04:29:45;;;;;;;14.48;6.13;;;6.10;94.60;;;;;;5081441;28;20017;-73
2023/05/25 04:32:13;;;;;;;11.77;5.97;;;6.10;94.50;;;;;;5087475;28;20035;-74
2023/05/25 04:34:41;;;;;;;15.63;6.03;;;6.10;94.60;;;;;;5097335;28;20035;-73
2023/05/25 04:37:07;;;;;;;14.25;6.78;;;6.10;94.80;;;;;;5095483;28;20052;-73
2023/05/25 04:39:33;;;;;;;13.13;6.20;;;6.10;95.30;;;;;;5085059;28;20036;-73
2023/05/25 04:42:03;;;;;;;15.95;6.32;;;6.10;95.50;;;;;;5087766;28;20028;-73
2023/05/25 04:44:29;;;;;;;13.68;6.35;;;6.20;95.60;;;;;;5097169;28;20020;-73
2023/05/25 04:46:55;;;;;;;15.52;7.18;;;6.10;96.00;;;;;;5098248;28;20020;-73
2023/05/25 04:49:21;;;;;;;27.98;13.82;;;6.10;95.90;;;;;;5096472;28;20020;-73
2023/05/25 04:51:46;;;;;;;20.75;10.27;;;6.20;96.20;;;;;;5083206;28;20441;-73
2023/05/25 04:54:12;;;;;;;18.13;7.35;;;6.20;96.10;;;;;;5079898;28;20028;-73
2023/05/25 04:56:38;;;;;;;17.58;7.05;;;6.30;96.20;;;;;;5080088;28;20031;-73
2023/05/25 04:59:03;;;;;;;14.07;6.85;;;6.30;96.90;;;;;;5092955;28;20032;-73
2023/05/25 05:01:29;;;;;;;13.07;6.97;;;6.30;97.00;;;;;;5095827;28;20024;-73
2023/05/25 05:03:55;;;;;;;13.88;6.18;;;6.40;96.90;;;;;;5086762;28;20032;-73
2023/05/25 05:06:21;;;;;;;17.52;6.47;;;6.50;97.30;;;;;;5092964;28;20028;-73
2023/05/25 05:08:47;;;;;;;15.68;6.75;;;6.60;96.80;;;;;;5084038;28;20030;-73
2023/05/25 05:11:12;;;;;;;12.70;6.05;;;6.60;97.10;;;;;;5080449;28;20016;-73
2023/05/25 05:13:38;;;;;;;18.80;6.50;;;6.70;97.20;;;;;;5085670;28;20060;-72
2023/05/25 05:16:04;;;;;;;13.43;6.45;;;6.80;97.10;;;;;;5088755;28;20039;-73
2023/05/25 05:18:29;;;;;;;14.27;6.72;;;6.90;97.60;;;;;;5079221;28;20031;-73
2023/05/25 05:20:55;;;;;;;22.77;7.43;;;7.00;97.80;;;;;;5095726;28;20027;-73
2023/05/25 05:23:20;;;;;;;19.25;6.85;;;7.10;98.00;;;;;;5078510;28;20054;-73
2023/05/25 05:25:46;;;;;;;14.68;6.22;;;7.20;98.00;;;;;;5083721;28;20035;-72
2023/05/25 05:28:14;;;;;;;16.73;7.75;;;7.40;98.00;;;;;;5083737;28;20559;-73
2023/05/25 05:30:40;;;;;;;14.93;6.78;;;7.70;98.00;;;;;;5082089;28;20024;-72
2023/05/25 05:33:05;;;;;;;13.52;6.03;;;7.90;98.00;;;;;;5090464;28;20085;-73
2023/05/25 05:35:31;;;;;;;15.27;6.18;;;8.10;98.00;;;;;;5085410;28;20325;-73
2023/05/25 05:37:57;;;;;;;16.13;5.85;;;8.40;98.00;;;;;;5080302;28;20097;-73
2023/05/25 05:40:22;;;;;;;14.95;6.10;;;8.70;98.00;;;;;;5090230;28;20043;-73
2023/05/25 05:42:49;;;;;;;11.57;5.60;;;9.00;98.00;;;;;;5097044;28;20024;-73
2023/05/25 05:45:14;;;;;;;16.33;6.20;;;9.10;98.00;;;;;;5096060;28;20027;-73
2023/05/25 05:47:40;;;;;;;18.15;6.38;;;9.20;98.00;;;;;;5082825;28;20031;-72
2023/05/25 05:50:06;;;;;;;11.30;6.10;;;9.30;97.80;;;;;;5095813;28;20057;-72
2023/05/25 05:52:32;;;;;;;15.65;6.07;;;9.20;97.50;;;;;;5079710;28;20034;-72
2023/05/25 05:54:57;;;;;;;12.90;6.57;;;9.10;97.60;;;;;;5091737;28;20027;-72
2023/05/25 05:57:23;;;;;;;15.85;6.55;;;9.10;97.90;;;;;;5096298;28;20173;-73
2023/05/25 05:59:48;;;;;;;13.70;6.30;;;9.30;98.00;;;;;;5096712;28;20443;-73
2023/05/25 06:02:14;;;;;;;13.32;6.03;;;9.60;98.00;;;;;;5095897;28;20016;-73
2023/05/25 06:04:39;;;;;;;17.17;6.30;;;10.00;97.50;;;;;;5088885;28;20028;-72
2023/05/25 06:07:05;;;;;;;13.38;6.03;;;10.40;96.90;;;;;;5093436;28;20028;-73
2023/05/25 06:09:30;;;;;;;13.73;5.72;;;10.80;96.20;;;;;;5094863;28;20119;-72
2023/05/25 06:11:56;;;;;;;13.45;5.90;;;11.20;95.30;;;;;;5078588;28;20043;-73
2023/05/25 06:14:22;;;;;;;17.80;6.07;;;11.50;94.30;;;;;;5096421;28;20375;-73
2023/05/25 06:16:47;;;;;;;16.42;6.95;;;11.80;93.80;;;;;;5088499;28;20428;-73
2023/05/25 06:19:13;;;;;;;17.00;6.80;;;12.20;93.90;;;;;;5080493;28;20032;-73
2023/05/25 06:21:38;;;;;;;19.20;7.30;;;12.20;92.10;;;;;;5077977;28;20426;-73
2023/05/25 06:24:04;;;;;;;14.10;6.35;;;12.30;91.80;;;;;;5093584;28;20077;-72
2023/05/25 06:26:31;;;;;;;15.60;6.68;;;12.20;92.00;;;;;;5094331;28;20432;-76
2023/05/25 06:28:56;;;;;;;19.83;6.70;;;12.40;91.10;;;;;;5094830;28;20040;-73
2023/05/25 06:31:22;;;;;;;19.55;7.50;;;12.50;90.90;;;;;;5087209;28;20047;-73
2023/05/25 06:33:47;;;;;;;16.63;6.88;;;12.30;90.50;;;;;;5088226;28;20024;-73
2023/05/25 06:36:14;;;;;;;13.95;6.88;;;12.10;92.10;;;;;;5070851;28;20048;-73
2023/05/25 06:38:39;;;;;;;16.85;7.45;;;12.30;92.00;;;;;;5083653;28;20024;-73
2023/05/25 06:41:06;;;;;;;18.27;6.63;;;12.30;91.60;;;;;;5083549;28;20023;-72
2023/05/25 06:43:34;;;;;;;15.38;7.00;;;12.30;91.30;;;;;;5091380;28;20317;-72
2023/05/25 06:46:00;;;;;;;17.40;7.70;;;12.60;91.80;;;;;;5083398;28;20035;-72
2023/05/25 06:48:25;;;;;;;21.30;7.68;;;12.80;90.70;;;;;;5065817;28;20028;-72
2023/05/25 06:50:51;;;;;;;17.85;7.22;;;12.90;89.60;;;;;;5081469;28;20021;-72
2023/05/25 06:53:17;;;;;;;18.35;7.72;;;12.40;90.40;;;;;;5064072;28;20115;-72
2023/05/25 06:55:43;;;;;;;17.25;7.97;;;12.00;90.90;;;;;;5074954;28;20433;-72
2023/05/25 06:58:08;;;;;;;19.83;8.57;;;11.50;92.90;;;;;;5090524;28;20024;-72
2023/05/25 07:00:34;;;;;;;13.82;7.18;;;11.20;93.60;;;;;;5096011;28;20027;-72
2023/05/25 07:03:00;;;;;;;20.67;8.13;;;11.10;94.70;;;;;;5095667;28;20024;-72
2023/05/25 07:05:25;;;;;;;15.63;7.60;;;11.20;94.70;;;;;;5092211;28;20016;-72
2023/05/25 07:07:51;;;;;;;18.15;8.65;;;11.00;94.40;;;;;;5085650;28;20078;-72
2023/05/25 07:10:16;;;;;;;22.52;8.40;;;10.90;95.20;;;;;;5074448;28;20024;-72
2023/05/25 07:12:42;;;;;;;24.05;9.50;;;10.80;95.20;;;;;;5077915;28;20032;-72
2023/05/25 07:15:08;;;;;;;18.85;9.10;;;10.60;95.80;;;;;;5095943;28;20084;-72
2023/05/25 07:17:35;;;;;;;18.02;8.15;;;10.70;96.50;;;;;;5095754;28;20028;-71
2023/05/25 07:20:01;;;;;;;17.67;8.68;;;10.70;96.10;;;;;;5069391;28;20329;-72
2023/05/25 07:22:27;;;;;;;20.40;8.68;;;10.70;95.90;;;;;;5090237;28;20869;-73
2023/05/25 07:24:52;;;;;;;17.60;7.57;;;10.90;95.90;;;;;;5092769;28;20013;-73
2023/05/25 07:27:18;;;;;;;18.83;8.57;;;11.30;95.10;;;;;;5080556;28;20024;-73
2023/05/25 07:29:44;;;;;;;17.05;7.28;;;11.60;95.00;;;;;;5079457;28;20031;-72
2023/05/25 07:32:09;;;;;;;18.20;8.60;;;11.90;94.00;;;;;;5079366;28;20309;-73
2023/05/25 07:34:35;;;;;;;14.98;9.02;;;12.00;93.00;;;;;;5099332;28;20042;-73
2023/05/25 07:37:01;;;;;;;16.98;8.07;;;12.00;93.20;;;;;;5093479;28;20067;-72
2023/05/25 07:39:26;;;;;;;18.25;7.88;;;12.60;93.20;;;;;;5093128;28;20043;-72
2023/05/25 07:41:52;;;;;;;17.50;7.57;;;13.10;91.00;;;;;;5099580;28;20294;-72
2023/05/25 07:44:18;;;;;;;15.43;7.72;;;13.50;89.50;;;;;;5099567;28;20078;-73
2023/05/25 07:46:43;;;;;;;18.27;8.48;;;13.70;88.90;;;;;;5099046;28;20016;-73
2023/05/25 07:49:14;;;;;;;15.73;7.50;;;13.90;88.60;;;;;;5093874;28;20421;-72
2023/05/25 07:51:42;;;;;;;22.45;8.07;;;13.90;88.40;;;;;;5086815;28;20102;-73
2023/05/25 07:54:07;;;;;;;20.02;8.73;;;13.90;89.30;;;;;;5086641;28;20108;-72
2023/05/25 07:56:33;;;;;;;16.17;6.80;;;13.90;88.70;;;;;;5086611;28;20067;-73
2023/05/25 07:59:02;;;;;;;15.48;7.50;;;13.70;89.50;;;;;;5079988;28;20386;-72
2023/05/25 08:01:30;;;;;;;17.65;7.75;;;13.80;89.70;;;;;;5061007;28;20025;-72
2023/05/25 08:03:56;;;;;;;17.60;8.90;;;14.00;88.20;;;;;;5078959;28;20100;-72
2023/05/25 08:06:22;;;;;;;20.80;8.43;;;14.10;88.60;;;;;;5064357;28;20370;-73
2023/05/25 08:08:48;;;;;;;20.73;8.45;;;13.90;88.50;;;;;;5097209;28;20027;-72
2023/05/25 08:11:15;;;;;;;20.33;8.43;;;13.70;90.50;;;;;;5088423;28;20020;-72
2023/05/25 08:13:41;;;;;;;15.98;8.20;;;13.60;89.80;;;;;;5098061;28;20099;-73
2023/05/25 08:16:07;;;;;;;13.73;7.60;;;14.00;90.40;;;;;;5098810;28;20044;-72
2023/05/25 08:18:33;;;;;;;17.92;8.02;;;14.30;89.90;;;;;;5098882;28;20358;-72
2023/05/25 08:20:59;;;;;;;16.13;8.25;;;14.60;88.30;;;;;;5087943;28;20170;-72
2023/05/25 08:23:25;;;;;;;16.88;8.40;;;14.70;87.20;;;;;;5096211;28;20028;-73
2023/05/25 08:25:51;;;;;;;17.73;7.53;;;14.80;88.00;;;;;;5094406;28;20024;-72
2023/05/25 08:28:16;;;;;;;16.85;7.88;;;14.90;87.30;;;;;;5078413;28;20095;-72
2023/05/25 08:30:44;;;;;;;15.50;8.73;;;15.20;87.20;;;;;;5078244;28;20437;-72
2023/05/25 08:33:09;;;;;;;17.17;7.75;;;15.40;85.80;;;;;;5077942;28;20031;-72
2023/05/25 08:35:39;;;;;;;15.38;7.47;;;15.40;86.60;;;;;;5078213;28;20044;-73
2023/05/25 08:38:05;;;;;;;16.15;7.03;;;15.90;87.10;;;;;;5092484;28;20032;-72
2023/05/25 08:40:31;;;;;;;15.80;7.15;;;16.90;85.60;;;;;;5078103;28;20020;-72
2023/05/25 08:42:57;;;;;;;17.90;7.53;;;17.70;82.10;;;;;;5088144;28;20089;-72
2023/05/25 08:45:22;;;;;;;17.38;7.88;;;17.90;80.90;;;;;;5098404;28;20030;-72
2023/05/25 08:47:52;;;;;;;17.30;7.75;;;18.10;80.20;;;;;;5098213;28;20063;-72
2023/05/25 08:50:18;;;;;;;22.27;9.70;;;17.70;79.50;;;;;;5094417;28;20067;-72
2023/05/25 08:52:48;;;;;;;17.60;7.63;;;17.50;81.30;;;;;;5079622;28;20024;-72
2023/05/25 08:55:15;;;;;;;15.43;7.93;;;18.30;80.60;;;;;;5092146;28;20449;-72
2023/05/25 08:58:01;;;;;;;20.10;9.15;;;18.90;79.40;;;;;;5089089;28;20024;-72
2023/05/25 09:00:53;;;;;;;16.40;7.72;;;18.60;79.00;;;;;;5080663;28;20027;-72
2023/05/25 09:03:20;;;;;;;22.13;9.45;;;18.90;80.20;;;;;;5074144;28;20046;-72
2023/05/25 09:05:47;;;;;;;18.33;8.55;;;18.60;78.40;;;;;;5085716;28;20030;-72
2023/05/25 09:08:12;;;;;;;17.48;9.00;;;17.80;80.30;;;;;;5094408;28;20032;-72
2023/05/25 09:10:39;;;;;;;18.35;8.52;;;17.90;81.00;;;;;;5095896;28;20042;-72
2023/05/25 09:13:04;;;;;;;15.45;7.97;;;18.40;80.60;;;;;;5079984;28;20028;-72
2023/05/25 09:15:31;;;;;;;18.35;7.95;;;18.90;80.00;;;;;;5078851;28;20024;-72
2023/05/25 09:17:57;;;;;;;15.43;8.27;;;19.50;78.20;;;;;;5097717;28;20032;-73
2023/05/25 09:20:23;;;;;;;16.20;8.30;;;19.30;77.50;;;;;;5096309;28;20017;-72
2023/05/25 09:22:49;;;;;;;17.13;8.25;;;19.50;76.60;;;;;;5091657;28;20032;-72
2023/05/25 09:25:20;;;;;;;14.82;7.80;;;19.60;77.80;;;;;;5096495;28;20149;-72
2023/05/25 09:27:46;;;;;;;14.75;7.93;;;19.90;77.40;;;;;;5097653;28;20023;-73
2023/05/25 09:30:12;;;;;;;19.30;8.25;;;20.80;75.50;;;;;;5081125;28;20021;-73
2023/05/25 09:32:38;;;;;;;16.30;8.43;;;20.00;76.20;;;;;;5078105;28;20166;-72
2023/05/25 09:35:13;;;;;;;22.80;10.57;;;19.80;76.90;;;;;;5079692;28;20049;-72
2023/05/25 09:37:41;;;;;;;15.38;8.25;;;18.70;78.90;;;;;;5096201;28;20428;-72
2023/05/25 09:40:08;;;;;;;14.02;7.43;;;18.90;79.80;;;;;;5095475;28;20041;-73
2023/05/25 09:42:34;;;;;;;15.13;7.25;;;19.80;78.10;;;;;;5096401;28;20024;-73
2023/05/25 09:44:59;;;;;;;15.20;8.50;;;20.60;77.60;;;;;;5076730;28;20460;-73
2023/05/25 09:47:26;;;;;;;18.50;8.50;;;21.40;74.80;;;;;;5091011;28;20033;-72
2023/05/25 09:49:52;;;;;;;16.98;7.45;;;21.60;74.10;;;;;;5096019;28;20039;-73
2023/05/25 09:52:18;;;;;;;17.95;8.63;;;22.30;71.50;;;;;;5096632;28;20036;-73
2023/05/25 09:54:48;;;;;;;16.92;8.07;;;22.80;70.20;;;;;;5089466;28;20034;-73
2023/05/25 09:57:15;;;;;;;15.38;7.43;;;22.30;70.90;;;;;;5097061;28;20413;-73
2023/05/25 09:59:41;;;;;;;17.63;8.13;;;21.70;73.90;;;;;;5097056;28;20031;-72
2023/05/25 10:02:07;;;;;;;17.02;8.48;;;21.80;73.00;;;;;;5091243;28;20024;-73
2023/05/25 10:04:33;;;;;;;19.50;8.95;;;21.50;74.20;;;;;;5095832;28;20104;-72
2023/05/25 10:06:59;;;;;;;16.23;8.60;;;21.60;75.40;;;;;;5096620;28;20028;-72
2023/05/25 10:09:30;;;;;;;15.02;9.07;;;21.80;73.20;;;;;;5083129;28;20029;-73
2023/05/25 10:11:56;;;;;;;14.90;8.60;;;22.40;72.10;;;;;;5077561;28;20081;-72
2023/05/25 10:14:26;;;;;;;15.63;7.85;;;23.00;70.80;;;;;;5076441;28;20448;-72
2023/05/25 10:16:53;;;;;;;15.35;9.55;;;22.50;71.50;;;;;;5076388;28;20314;-75
2023/05/25 10:19:21;;;;;;;15.30;8.20;;;22.20;71.00;;;;;;5082890;28;20444;-74
2023/05/25 10:21:57;;;;;;;20.38;9.40;;;21.50;74.20;;;;;;5076701;28;20318;-74
2023/05/25 10:24:54;;;;;;;20.15;8.90;;;21.50;73.30;;;;;;5092400;28;20479;-74
2023/05/25 10:27:23;;;;;;;18.25;8.75;;;21.50;74.20;;;;;;5080856;28;20322;-73
2023/05/25 10:29:58;;;;;;;15.88;7.70;;;22.30;73.00;;;;;;5083927;28;20017;-74
2023/05/25 10:32:24;;;;;;;13.77;7.35;;;22.90;72.10;;;;;;5095043;28;20036;-73
2023/05/25 10:34:52;;;;;;;17.00;8.90;;;22.90;71.00;;;;;;5096367;28;20099;-73
2023/05/25 10:37:17;;;;;;;14.48;8.90;;;22.30;72.30;;;;;;5084832;28;20966;-73
2023/05/25 10:39:44;;;;;;;16.52;9.25;;;22.10;72.10;;;;;;5080441;28;20037;-73
2023/05/25 10:42:11;;;;;;;17.80;9.27;;;21.90;72.30;;;;;;5077491;28;20039;-73
2023/05/25 10:44:39;;;;;;;16.13;8.38;;;21.80;73.20;;;;;;5093458;28;20021;-73
2023/05/25 10:47:06;;;;;;;17.52;8.77;;;22.20;72.90;;;;;;5096373;28;20024;-71
2023/05/25 10:49:33;;;;;;;14.77;7.35;;;23.30;72.60;;;;;;5096104;28;20397;-72
2023/05/25 10:51:59;;;;;;;19.38;8.35;;;23.70;70.80;;;;;;5094394;28;20040;-72
2023/05/25 10:54:35;;;;;;;15.88;8.60;;;24.20;68.50;;;;;;5084759;28;20039;-72
2023/05/25 10:57:18;;;;;;;17.08;9.18;;;23.70;69.20;;;;;;5092019;28;20085;-72
2023/05/25 10:59:49;;;;;;;19.63;9.35;;;23.10;70.40;;;;;;5094707;28;20028;-72
2023/05/25 11:02:15;;;;;;;18.38;9.63;;;22.10;72.70;;;;;;5094840;28;20388;-72
2023/05/25 11:04:41;;;;;;;14.20;7.97;;;21.30;75.20;;;;;;5095994;28;20048;-72
2023/05/25 11:07:12;;;;;;;14.43;8.13;;;21.70;75.90;;;;;;5095241;28;20043;-72
2023/05/25 11:09:42;;;;;;;15.25;8.65;;;22.90;73.90;;;;;;5090529;28;22010;-72
2023/05/25 11:12:19;;;;;;;19.52;9.82;;;23.70;71.00;;;;;;5092092;28;20029;-73
2023/05/25 11:15:08;;;;;;;17.70;9.57;;;22.90;70.30;;;;;;5095117;28;20024;-72
2023/05/25 11:17:44;;;;;;;19.60;10.40;;;22.00;72.50;;;;;;5095735;28;20467;-72
2023/05/25 11:20:24;;;;;;;20.35;8.90;;;21.40;74.50;;;;;;5095677;28;20360;-72
2023/05/25 11:22:51;;;;;;;13.85;8.52;;;21.10;77.10;;;;;;5092915;28;20110;-73
2023/05/25 11:25:40;;;;;;;16.17;7.70;;;21.50;74.90;;;;;;5074399;28;20017;-73
2023/05/25 11:28:09;;;;;;;18.23;7.80;;;22.60;74.90;;;;;;5089880;28;20314;-74
2023/05/25 11:30:39;;;;;;;16.38;8.13;;;23.10;72.00;;;;;;5083193;28;20029;-73
2023/05/25 11:33:06;;;;;;;17.15;8.30;;;22.60;72.50;;;;;;5092027;28;20094;-72
2023/05/25 11:35:32;;;;;;;12.25;8.27;;;22.00;74.70;;;;;;5080257;28;20085;-72
2023/05/25 11:38:05;;;;;;;12.43;7.05;;;22.10;73.40;;;;;;5095666;28;20039;-73
2023/05/25 11:40:31;;;;;;;13.85;7.40;;;22.20;75.10;;;;;;5094505;28;20357;-73
2023/05/25 11:42:59;;;;;;;13.13;7.90;;;22.40;73.90;;;;;;5068277;28;20121;-73
2023/05/25 11:45:27;;;;;;;19.75;10.38;;;22.10;74.50;;;;;;5092105;28;20016;-73
2023/05/25 11:47:53;;;;;;;14.13;8.90;;;22.00;75.40;;;;;;5081266;28;20087;-73
2023/05/25 11:50:18;;;;;;;12.02;7.32;;;22.60;74.30;;;;;;5080965;28;20028;-73
2023/05/25 11:52:44;;;;;;;17.70;8.13;;;23.40;73.80;;;;;;5094651;28;20064;-73
2023/05/25 11:55:12;;;;;;;16.85;7.68;;;24.20;70.50;;;;;;5076243;28;20032;-73
2023/05/25 11:57:39;;;;;;;14.40;6.68;;;24.00;70.20;;;;;;5093831;28;20077;-73
2023/05/25 12:00:05;;;;;;;12.55;7.10;;;23.20;72.30;;;;;;5085623;28;20032;-73
2023/05/25 12:02:37;;;;;;;14.50;7.75;;;23.00;72.50;;;;;;5075136;28;20131;-73
2023/05/25 12:05:03;;;;;;;14.27;6.88;;;22.80;72.80;;;;;;5080524;28;20013;-74
2023/05/25 12:07:29;;;;;;;14.50;7.22;;;23.00;73.70;;;;;;5094776;28;20103;-73
2023/05/25 12:10:15;;;;;;;17.05;7.35;;;23.60;72.20;;;;;;5097421;28;20024;-73
2023/05/25 12:12:49;;;;;;;14.55;7.18;;;23.40;71.20;;;;;;5083482;28;20047;-74
2023/05/25 12:15:20;;;;;;;13.75;7.25;;;23.30;72.20;;;;;;5095090;28;20099;-74
2023/05/25 12:17:47;;;;;;;16.20;7.40;;;22.80;72.80;;;;;;5081204;28;20426;-74
2023/05/25 12:20:14;;;;;;;13.73;7.40;;;22.80;74.00;;;;;;5082700;28;20303;-73
2023/05/25 12:22:42;;;;;;;15.15;8.00;;;23.00;72.40;;;;;;5098197;28;20127;-73
2023/05/25 12:25:09;;;;;;;14.25;8.07;;;22.70;74.10;;;;;;5097602;28;20322;-73
2023/05/25 12:27:36;;;;;;;14.20;7.22;;;22.00;74.50;;;;;;5098671;28;20024;-73
2023/05/25 12:30:06;;;;;;;14.82;7.43;;;22.10;75.70;;;;;;5097418;28;20103;-73
2023/05/25 12:32:32;;;;;;;15.27;8.35;;;22.00;74.70;;;;;;5082641;28;20024;-73
2023/05/25 12:35:16;;;;;;;14.02;7.43;;;21.70;75.90;;;;;;5097992;28;20050;-73
2023/05/25 12:37:41;;;;;;;13.45;7.38;;;21.40;75.50;;;;;;5084027;28;20043;-73
2023/05/25 12:40:17;;;;;;;16.13;7.63;;;21.70;75.90;;;;;;5097239;28;20036;-73
2023/05/25 12:42:42;;;;;;;14.70;7.72;;;21.40;76.90;;;;;;5098319;28;20035;-73